Lanse, PA (16849)

8:23 PM EDT on September 01, 2015 (GMT -0400)
South Philipsburg | | Change Station
CLOSE
Current Station
Personal Weather Station
Location: Philipsburg, PA
Elevation: 1444 ft
Nearby Weather Stations

Elev 1444 ft 40.89 °N, 78.22 °W | Updated 2 minutes ago

Clear
Clear
71.4 °F
Feels Like 71.4 °F
N
0.0
Wind Variable Wind from SE
Gusts 0.0 mph

Today
High -- | Low -- °F
--% Chance of Precip.
Yesterday
High -- | Low -- °F
Precip. -- in
6:38 AM 7:45 PM
Waning Gibbous, 85% visible
Pressure 30.08 in
Visibility 9.0 miles
Clouds Clear
Dew Point 68 °F
Humidity 88%
Rainfall 0.00 in
Snow Depth Not available.
UV 0 out of 12
Pollen 10.20 out of 12
Air Quality Not available.
Flu Activity Not available.
METAR KFIG 012354Z AUTO 35004KT 9SM CLR 23/19 A3010 RMK AO2 SLP184 T02330189 10300 20233 55001
Pressure 30.08 in
Visibility 9.0 miles
Clouds Clear
Dew Point 68 °F
Humidity 88%
Rainfall 0.00 in
Snow Depth Not available.
UV 0 out of 12
Pollen 10.20 out of 12
Air Quality Not available.
Flu Activity Not available.
METAR KFIG 012354Z AUTO 35004KT 9SM CLR 23/19 A3010 RMK AO2 SLP184 T02330189 10300 20233 55001

10-Day Weather Forecast

×

Almanac

Astronomy

Sep. 01, 2015 Rise Set
Actual Time
Civil Twilight
Nautical Twilight
Astronomical Twilight
Moon
Length of Visible Light
Length of Day
Tomorrow will be .
, % of the Moon is Illuminated

Today's Extremes

State Highs State Lows

Community

WunderPhotos

Upload Photos

1,851,657 photos uploaded!

WunderBlogs® & News

Nearby

Air Quality

  Air Quality AQ Index Pollutant
Not available.

Snow Depth

Station Depth Elevation

Earthquake Activity

City Distance Mag. Time & Date
Minimum magnitude displayed is 2.5.

Coastal Water Temperatures

Place Temperature

Stations

Nearby Weather Stations

Station Location Temp. Windchill Dew Point Humidity Wind Precip. Elev Updated Type